sensor_id;sensor_type;location;lat;lon;timestamp;pressure;altitude;pressure_sealevel;temperature;humidity
74685;BME280;63215;51.354;6.154;2022-09-09T06:57:41;100660.0;;;31.2;40.0
74685;BME280;63215;51.354;6.154;2022-09-09T07:03:03;100661.0;;;31.2;40.0
74685;BME280;63215;51.354;6.154;2022-09-09T07:08:25;100658.0;;;31.3;40.0
74685;BME280;63215;51.354;6.154;2022-09-09T07:13:46;100657.0;;;31.3;40.0
74685;BME280;63215;51.354;6.154;2022-09-09T07:19:07;100655.0;;;31.3;40.0
74685;BME280;63215;51.354;6.154;2022-09-09T07:29:49;100653.0;;;31.3;40.1
74685;BME280;63215;51.354;6.154;2022-09-09T07:35:10;100654.0;;;31.4;40.1
74685;BME280;63215;51.354;6.154;2022-09-09T07:40:32;100654.0;;;31.4;40.0
74685;BME280;63215;51.354;6.154;2022-09-09T07:45:57;100657.0;;;31.4;40.0
74685;BME280;63215;51.354;6.154;2022-09-09T07:51:19;100658.0;;;31.4;40.0
74685;BME280;63215;51.354;6.154;2022-09-09T07:56:39;100659.0;;;31.4;40.0
74685;BME280;63215;51.354;6.154;2022-09-09T08:01:59;100659.0;;;31.4;40.0
74685;BME280;63215;51.354;6.154;2022-09-09T08:07:22;100661.0;;;31.4;40.0
74685;BME280;63215;51.354;6.154;2022-09-09T08:12:43;100665.0;;;31.5;39.9
74685;BME280;63215;51.354;6.154;2022-09-09T08:18:05;100668.0;;;31.5;39.9
74685;BME280;63215;51.354;6.154;2022-09-09T08:23:26;100670.0;;;31.5;39.9
74685;BME280;63215;51.354;6.154;2022-09-09T08:34:10;100678.0;;;31.5;39.9
74685;BME280;63215;51.354;6.154;2022-09-09T08:39:32;100681.0;;;31.5;39.7
74685;BME280;63215;51.354;6.154;2022-09-09T08:45:09;100684.0;;;31.6;39.6
74685;BME280;63215;51.354;6.154;2022-09-09T08:55:41;100688.0;;;31.6;39.6
74685;BME280;63215;51.354;6.154;2022-09-09T09:01:11;100688.0;;;31.6;39.5
74685;BME280;63215;51.354;6.154;2022-09-09T09:11:44;100690.0;;;31.6;39.5
74685;BME280;63215;51.354;6.154;2022-09-09T09:17:04;100693.0;;;31.6;39.5
74685;BME280;63215;51.354;6.154;2022-09-09T09:22:30;100696.0;;;31.6;39.5
74685;BME280;63215;51.354;6.154;2022-09-09T09:27:51;100697.0;;;31.7;39.4
74685;BME280;63215;51.354;6.154;2022-09-09T09:38:30;100699.0;;;31.7;39.3
74685;BME280;63215;51.354;6.154;2022-09-09T09:43:54;100701.0;;;31.7;39.2
74685;BME280;63215;51.354;6.154;2022-09-09T09:49:12;100702.0;;;31.7;39.1
74685;BME280;63215;51.354;6.154;2022-09-09T09:54:37;100705.0;;;31.8;38.9
74685;BME280;63215;51.354;6.154;2022-09-09T10:00:12;100706.0;;;31.8;38.8
74685;BME280;63215;51.354;6.154;2022-09-09T10:05:19;100708.0;;;31.8;38.7
74685;BME280;63215;51.354;6.154;2022-09-09T10:10:52;100708.0;;;31.8;38.6
74685;BME280;63215;51.354;6.154;2022-09-09T10:16:19;100707.0;;;31.8;38.5
74685;BME280;63215;51.354;6.154;2022-09-09T10:21:35;100706.0;;;31.8;38.5
74685;BME280;63215;51.354;6.154;2022-09-09T10:26:49;100705.0;;;31.9;38.4
74685;BME280;63215;51.354;6.154;2022-09-09T10:32:20;100705.0;;;31.9;38.3
74685;BME280;63215;51.354;6.154;2022-09-09T10:37:41;100706.0;;;31.9;38.2
74685;BME280;63215;51.354;6.154;2022-09-09T11:09:41;100712.0;;;31.9;38.7
74685;BME280;63215;51.354;6.154;2022-09-09T11:15:03;100712.0;;;31.9;38.8
74685;BME280;63215;51.354;6.154;2022-09-09T11:20:20;100711.0;;;31.9;39.0
74685;BME280;63215;51.354;6.154;2022-09-09T11:25:44;100709.0;;;31.9;39.1
74685;BME280;63215;51.354;6.154;2022-09-09T11:31:15;100711.0;;;31.9;39.2
74685;BME280;63215;51.354;6.154;2022-09-09T11:36:44;100713.0;;;31.9;39.3
74685;BME280;63215;51.354;6.154;2022-09-09T11:41:45;100714.0;;;31.9;39.3
74685;BME280;63215;51.354;6.154;2022-09-09T11:47:19;100715.0;;;31.9;39.5
74685;BME280;63215;51.354;6.154;2022-09-09T11:52:37;100719.0;;;31.9;39.7
74685;BME280;63215;51.354;6.154;2022-09-09T11:57:57;100724.0;;;31.9;39.9
74685;BME280;63215;51.354;6.154;2022-09-09T12:03:34;100725.0;;;31.9;40.1
74685;BME280;63215;51.354;6.154;2022-09-09T12:08:35;100724.0;;;31.9;40.2
74685;BME280;63215;51.354;6.154;2022-09-09T12:13:55;100722.0;;;31.9;40.3
74685;BME280;63215;51.354;6.154;2022-09-09T12:19:18;100722.0;;;31.9;40.4
74685;BME280;63215;51.354;6.154;2022-09-09T12:24:43;100721.0;;;31.8;40.6
74685;BME280;63215;51.354;6.154;2022-09-09T12:30:04;100720.0;;;31.8;40.7
74685;BME280;63215;51.354;6.154;2022-09-09T12:35:24;100717.0;;;31.8;40.8
74685;BME280;63215;51.354;6.154;2022-09-09T12:40:53;100714.0;;;31.9;40.8
74685;BME280;63215;51.354;6.154;2022-09-09T12:46:10;100711.0;;;31.9;40.9
74685;BME280;63215;51.354;6.154;2022-09-09T12:51:28;100707.0;;;31.9;41.0
74685;BME280;63215;51.354;6.154;2022-09-09T12:56:48;100702.0;;;31.9;41.1
74685;BME280;63215;51.354;6.154;2022-09-09T13:02:16;100699.0;;;31.9;41.1
74685;BME280;63215;51.354;6.154;2022-09-09T13:07:29;100697.0;;;31.9;41.1
74685;BME280;63215;51.354;6.154;2022-09-09T13:12:51;100692.0;;;31.9;41.2
74685;BME280;63215;51.354;6.154;2022-09-09T13:18:13;100688.0;;;31.9;41.2
74685;BME280;63215;51.354;6.154;2022-09-09T13:23:36;100681.0;;;32.0;41.2
74685;BME280;63215;51.354;6.154;2022-09-09T13:28:55;100676.0;;;32.0;41.2
74685;BME280;63215;51.354;6.154;2022-09-09T13:34:26;100673.0;;;32.0;41.1
74685;BME280;63215;51.354;6.154;2022-09-09T13:39:37;100669.0;;;32;41.0
74685;BME280;63215;51.354;6.154;2022-09-09T13:50:19;100668.0;;;32.0;40.9
74685;BME280;63215;51.354;6.154;2022-09-09T13:55:40;100671.0;;;32.0;40.9
